Elberon, NJ

6:20 AM EDT on August 26, 2019 (GMT -0400)
Shadow Lawn Manor | | Change Station
Active Advisory: Coastal Hazard Statement Active Notice: Coastal Hazard Statement

Elev 43 ft 40.28 °N, 74.01 °W | Updated 35 seconds ago

Overcast
Overcast
63.9 °F
Feels Like 63.9 °F
N
2
Wind Variable Wind from NNW
Gusts 5.0 mph

Today
High -- | Low -- °F
--% Chance of Precip.
Yesterday
High -- | Low -- °F
Precip. -- in
Pressure 30.21 in
Visibility 10.0 miles
Clouds Mostly Cloudy 1700 ft
Overcast 2600 ft
Dew Point 59 °F
Humidity 85%
Rainfall 0.00 in
Snow Depth Not available.
6:17 AM 7:37 PM
Waning Crescent, 22% visible
METAR KBLM 260956Z AUTO 02007KT 10SM BKN017 OVC026 18/15 A3021 RMK AO2 SLP228 T01780150
Pressure 30.21 in
Visibility 10.0 miles
Clouds Mostly Cloudy 1700 ft
Overcast 2600 ft
Dew Point 59 °F
Humidity 85%
Rainfall 0.00 in
Snow Depth Not available.
6:17 AM 7:37 PM
Waning Crescent, 22% visible
METAR KBLM 260956Z AUTO 02007KT 10SM BKN017 OVC026 18/15 A3021 RMK AO2 SLP228 T01780150

Get Your Daily Forecast Email!

Thanks for signing up!

Be on the lookout for a verification email in your inbox.

You'll start receiving severe weather alerts in your inbox..

×

10-Day Weather Forecast

Almanac

Astronomy

Aug. 26, 2019 Rise Set
Actual Time
Civil Twilight
Nautical Twilight
Astronomical Twilight
Moon
Length of Visible Light
Length of Day
Tomorrow will be .
, % of the Moon is Illuminated

Today's Extremes

State Highs State Lows

Community

WunderPhotos

Category 6

Welcome to Category 6. This is the collective home for Weather Underground's featured writeups by Dr. Jeff Masters (right), Bob Henson (left), Chris Burt, and other regular contributors.

Nearby

Air Quality

  Air Quality AQ Index Pollutant
Not available.

Snow Depth

Station Depth Elevation

Earthquake Activity

City Distance Mag. Time & Date
Minimum magnitude displayed is 2.5.

Coastal Water Temperatures

Place Temperature

Stations

Nearby Weather Stations

Station Location Temp. Windchill Dew Point Humidity Wind Precip. Elev Updated Type
                   

Watches & Warnings

Coastal Hazard Statement
Issued: 5:03 AM EDT Aug. 26, 2019 – National Weather Service

... High rip current risk remains in effect through this evening...

* locations... in New Jersey, coastal ocean, Atlantic coastal
Cape May, eastern Monmouth and coastal Atlantic. In Delaware,
Delaware beaches.

* Timing... through this evening.

* Surf zone impacts... very strong rip currents will be dangerous
to anyone who enters the surf.

Precautionary/preparedness actions...

Stay out of the surf. If you are ever caught in a rip current,
relax and float. Do not swim against the current. If possible,
swim in a direction following the shoreline. If unable to escape,
face the shore and call or wave for help.